Time;durP1;ratioP1;P1;durP2;ratioP2;P2;SDS_P1;SDS_P2;PMS_P1;PMS_P2;Temp;Humidity;BMP_temperature;BMP_pressure;BME280_temperature;BME280_humidity;BME280_pressure;Samples;Min_cycle;Max_cycle;Signal;HPM_P1;HPM_P2
2021/12/29 00:02:01;;;;;;;13.88;8.45;;;;;;;5.58;100.00;99700.19;6219240;23;20009;-85
2021/12/29 00:04:27;;;;;;;13.90;7.70;;;;;;;5.67;100.00;99701.06;6218138;23;20088;-83
2021/12/29 00:06:56;;;;;;;15.50;7.47;;;;;;;5.53;100.00;99696.38;6192236;23;20066;-85
2021/12/29 00:09:22;;;;;;;11.80;7.18;;;;;;;5.72;100.00;99701.47;6219370;23;20013;-82
2021/12/29 00:11:48;;;;;;;9.38;6.57;;;;;;;5.81;100.00;99702.34;6219012;23;20008;-85
2021/12/29 00:14:13;;;;;;;12.70;6.53;;;;;;;5.53;100.00;99702.47;6192628;23;20115;-85
2021/12/29 00:16:39;;;;;;;11.27;6.13;;;;;;;5.52;100.00;99695.53;6219475;23;20115;-84
2021/12/29 00:19:05;;;;;;;10.48;6.43;;;;;;;5.73;100.00;99703.94;6219672;23;20016;-84
2021/12/29 00:21:33;;;;;;;8.50;5.55;;;;;;;5.90;100.00;99714.66;6192869;23;20444;-83
2021/12/29 00:24:04;;;;;;;9.55;4.57;;;;;;;5.96;100.00;99703.50;6221425;23;20001;-85
2021/12/29 00:26:32;;;;;;;6.32;4.25;;;;;;;6.02;100.00;99710.78;6231199;23;20039;-84
2021/12/29 00:28:59;;;;;;;6.05;3.92;;;;;;;6.04;100.00;99711.44;6211190;23;20065;-83
2021/12/29 00:31:26;;;;;;;6.70;4.40;;;;;;;6.11;100.00;99704.59;6235485;23;20019;-84
2021/12/29 00:34:10;;;;;;;6.80;4.28;;;;;;;6.20;100.00;99690.50;6234884;23;20035;-83
2021/12/29 00:37:08;;;;;;;6.85;4.20;;;;;;;6.07;100.00;99700.63;6200269;23;20013;-84
2021/12/29 00:39:52;;;;;;;6.43;4.53;;;;;;;6.20;100.00;99698.41;6234467;23;20079;-83
2021/12/29 00:42:53;;;;;;;6.03;3.78;;;;;;;6.30;100.00;99691.25;6236368;23;20091;-84
2021/12/29 00:45:39;;;;;;;7.90;4.50;;;;;;;6.04;100.00;99693.88;6238681;23;20032;-84
2021/12/29 00:48:10;;;;;;;7.05;4.38;;;;;;;5.96;100.00;99693.81;6229846;23;20012;-84
2021/12/29 00:50:35;;;;;;;7.20;5.05;;;;;;;5.93;100.00;99686.22;6237807;23;20012;-83
2021/12/29 00:53:01;;;;;;;7.95;4.53;;;;;;;5.85;100.00;99685.31;6208528;23;20008;-83
2021/12/29 00:55:27;;;;;;;6.88;4.53;;;;;;;5.81;100.00;99690.03;6239800;22;20309;-83
2021/12/29 00:57:52;;;;;;;7.03;4.57;;;;;;;5.87;100.00;99693.88;6237112;23;20032;-83
2021/12/29 01:00:21;;;;;;;6.70;3.85;;;;;;;5.85;100.00;99687.94;6235035;23;20027;-83
2021/12/29 01:02:48;;;;;;;7.60;4.90;;;;;;;5.89;100.00;99692.78;6236501;23;20000;-82
2021/12/29 01:05:14;;;;;;;10.35;5.00;;;;;;;5.80;100.00;99693.63;6236245;23;20009;-84
2021/12/29 01:07:41;;;;;;;8.15;5.43;;;;;;;5.87;100.00;99688.63;6235610;23;20005;-83
2021/12/29 01:10:08;;;;;;;7.35;4.93;;;;;;;5.83;100.00;99695.16;6234728;23;19996;-82
2021/12/29 01:12:34;;;;;;;7.40;4.78;;;;;;;5.71;100.00;99689.28;6227790;23;20036;-83
2021/12/29 01:15:02;;;;;;;6.28;4.22;;;;;;;5.50;100.00;99697.47;6219708;23;20044;-85
2021/12/29 01:17:27;;;;;;;6.55;4.82;;;;;;;5.11;100.00;99709.22;6194705;23;20013;-84
2021/12/29 01:19:54;;;;;;;6.88;4.43;;;;;;;5.08;100.00;99712.13;6221146;23;20310;-84
2021/12/29 01:22:21;;;;;;;7.85;4.85;;;;;;;4.94;100.00;99715.28;6221226;23;20012;-84
2021/12/29 01:24:47;;;;;;;7.82;4.30;;;;;;;4.86;100.00;99710.75;6222293;23;20008;-83
2021/12/29 01:27:14;;;;;;;7.15;4.32;;;;;;;4.86;100.00;99712.53;6221435;23;20043;-85
2021/12/29 01:29:40;;;;;;;5.53;3.75;;;;;;;4.76;100.00;99711.75;6221144;23;20019;-85
2021/12/29 01:32:06;;;;;;;4.95;3.88;;;;;;;4.93;100.00;99716.25;6221166;23;20075;-86
2021/12/29 01:34:32;;;;;;;6.40;4.20;;;;;;;4.85;100.00;99721.38;6221623;23;20039;-85
2021/12/29 01:36:58;;;;;;;5.35;3.90;;;;;;;4.76;100.00;99732.75;6219424;23;20383;-83
2021/12/29 01:39:24;;;;;;;6.85;3.28;;;;;;;4.67;100.00;99724.75;6216999;23;20036;-86
2021/12/29 01:41:52;;;;;;;4.50;3.42;;;;;;;4.57;100.00;99737.09;6217109;23;20455;-86
2021/12/29 01:44:21;;;;;;;4.88;3.45;;;;;;;4.73;100.00;99730.44;6190170;23;20337;-83
2021/12/29 01:46:47;;;;;;;6.80;4.07;;;;;;;4.97;100.00;99725.50;6216490;23;20075;-84
2021/12/29 01:49:13;;;;;;;4.72;3.40;;;;;;;4.80;100.00;99723.63;6216485;23;20009;-86
2021/12/29 01:51:49;;;;;;;6.90;3.85;;;;;;;4.96;100.00;99718.56;6216143;23;20508;-83
2021/12/29 01:54:25;;;;;;;5.38;3.45;;;;;;;5.09;100.00;99714.63;6215883;23;20009;-83
2021/12/29 01:56:57;;;;;;;5.05;3.10;;;;;;;5.24;100.00;99717.56;6216075;23;20012;-84
2021/12/29 01:59:25;;;;;;;5.75;3.95;;;;;;;5.21;100.00;99725.75;6215764;23;20062;-85
2021/12/29 02:01:52;;;;;;;8.73;5.10;;;;;;;5.16;100.00;99717.50;6216514;23;20015;-86
2021/12/29 02:04:19;;;;;;;8.38;5.10;;;;;;;4.87;100.00;99719.47;6217371;23;20388;-84
2021/12/29 02:06:46;;;;;;;9.77;5.05;;;;;;;4.89;100.00;99725.38;6217400;23;20012;-84
2021/12/29 02:09:12;;;;;;;9.15;5.60;;;;;;;4.87;100.00;99714.22;6217876;23;20036;-85
2021/12/29 02:11:38;;;;;;;8.32;5.47;;;;;;;4.68;100.00;99718.56;6220344;23;20009;-85
2021/12/29 02:14:07;;;;;;;10.32;6.38;;;;;;;4.60;100.00;99715.00;6237791;23;20013;-84
2021/12/29 02:16:33;;;;;;;8.35;5.82;;;;;;;4.44;100.00;99710.34;6239989;23;20007;-85
2021/12/29 02:19:02;;;;;;;9.90;5.43;;;;;;;4.49;100.00;99718.63;6241097;22;20035;-86
2021/12/29 02:21:29;;;;;;;7.85;5.03;;;;;;;4.67;100.00;99719.50;6229353;23;20080;-85
2021/12/29 02:26:31;;;;;;;15.40;5.68;;;;;;;4.88;100.00;99713.22;6217670;23;20012;-85
2021/12/29 02:29:00;;;;;;;8.57;5.57;;;;;;;4.73;100.00;99717.31;6216833;23;20039;-83
2021/12/29 02:31:27;;;;;;;12.98;5.78;;;;;;;4.75;100.00;99710.09;6215818;23;20012;-85
2021/12/29 02:33:54;;;;;;;10.35;5.97;;;;;;;4.60;100.00;99718.47;6189683;23;20000;-86
2021/12/29 02:36:21;;;;;;;12.00;6.45;;;;;;;4.37;100.00;99726.81;6216047;23;20009;-85
2021/12/29 02:38:51;;;;;;;11.93;5.85;;;;;;;4.12;100.00;99728.22;6215891;23;20028;-84
2021/12/29 02:41:17;;;;;;;9.85;6.53;;;;;;;3.89;100.00;99732.13;6215799;23;20074;-84
2021/12/29 02:43:44;;;;;;;13.18;8.00;;;;;;;4.13;100.00;99740.38;6216148;23;20005;-84
2021/12/29 02:46:12;;;;;;;13.60;8.25;;;;;;;4.10;100.00;99740.66;6216375;23;20055;-86
2021/12/29 02:48:53;;;;;;;13.13;8.35;;;;;;;4.38;100.00;99731.06;6215491;23;20016;-85
2021/12/29 02:51:19;;;;;;;14.88;9.27;;;;;;;4.14;100.00;99736.81;6189173;23;20013;-85
2021/12/29 02:53:45;;;;;;;14.13;9.40;;;;;;;4.07;100.00;99739.16;6215540;23;20023;-84
2021/12/29 02:56:11;;;;;;;18.52;9.95;;;;;;;4.20;100.00;99738.84;6215810;23;20336;-86
2021/12/29 02:58:37;;;;;;;36.28;14.50;;;;;;;4.37;100.00;99735.50;6215579;23;20465;-84
2021/12/29 03:01:07;;;;;;;171.07;14.80;;;;;;;4.02;100.00;99740.53;6215436;23;20016;-85
2021/12/29 03:03:36;;;;;;;45.13;12.15;;;;;;;3.79;100.00;99745.22;6215534;23;20084;-85
2021/12/29 03:06:04;;;;;;;107.68;13.15;;;;;;;3.40;100.00;99757.47;6215733;23;20432;-86
2021/12/29 03:08:30;;;;;;;86.47;13.57;;;;;;;3.23;100.00;99750.25;6218026;23;20016;-85
2021/12/29 03:10:56;;;;;;;37.70;12.88;;;;;;;3.06;100.00;99743.06;6217247;23;20009;-85
2021/12/29 03:13:28;;;;;;;48.90;13.50;;;;;;;3.19;100.00;99738.41;6217117;23;20001;-85
2021/12/29 03:15:54;;;;;;;31.77;12.73;;;;;;;3.16;100.00;99743.06;6190645;23;20424;-84
2021/12/29 03:18:20;;;;;;;137.32;14.80;;;;;;;2.69;100.00;99726.25;6217432;23;20494;-85
2021/12/29 03:20:46;;;;;;;103.00;14.95;;;;;;;2.30;100.00;99725.25;6217021;23;20013;-85
2021/12/29 03:23:13;;;;;;;75.25;17.02;;;;;;;2.06;100.00;99715.03;6217228;23;20024;-87
2021/12/29 03:25:39;;;;;;;60.08;16.63;;;;;;;2.09;100.00;99710.41;6217077;23;20008;-85
2021/12/29 03:28:04;;;;;;;160.05;19.80;;;;;;;1.89;100.00;99713.84;6216991;23;20019;-83
2021/12/29 03:30:33;;;;;;;121.05;18.20;;;;;;;1.84;100.00;99715.19;6217320;23;20421;-82
2021/12/29 03:33:05;;;;;;;150.07;19.30;;;;;;;1.76;100.00;99717.56;6217599;23;20013;-84
2021/12/29 03:35:40;;;;;;;169.95;18.30;;;;;;;2.00;100.00;99720.78;6216616;23;20009;-81
2021/12/29 03:38:12;;;;;;;72.15;17.70;;;;;;;1.96;100.00;99722.81;6216421;23;20009;-83
2021/12/29 03:40:38;;;;;;;89.03;18.30;;;;;;;2.23;100.00;99731.94;6190113;23;20027;-82
2021/12/29 03:43:06;;;;;;;201.60;19.17;;;;;;;1.99;100.00;99740.03;6217302;23;20012;-84
2021/12/29 03:45:33;;;;;;;46.95;16.90;;;;;;;2.13;100.00;99728.44;6217213;23;20014;-85
2021/12/29 03:47:58;;;;;;;109.60;16.10;;;;;;;2.17;100.00;99730.66;6217447;23;20016;-85
2021/12/29 03:50:24;;;;;;;99.55;16.17;;;;;;;2.03;100.00;99726.59;6217428;23;20059;-85
2021/12/29 03:52:50;;;;;;;132.68;14.95;;;;;;;2.16;100.00;99736.84;6216945;23;20008;-83
2021/12/29 03:55:16;;;;;;;62.63;13.70;;;;;;;2.47;100.00;99735.94;6216910;23;20012;-84
2021/12/29 03:57:42;;;;;;;29.42;12.93;;;;;;;2.62;100.00;99743.44;6190061;23;20012;-83
2021/12/29 04:00:11;;;;;;;28.85;13.63;;;;;;;2.55;100.00;99754.41;6216829;23;20013;-84
2021/12/29 04:02:37;;;;;;;23.10;13.80;;;;;;;2.40;100.00;99747.88;6189576;23;20024;-85
2021/12/29 04:05:05;;;;;;;19.17;12.32;;;;;;;2.28;100.00;99745.47;6216633;23;20004;-84
2021/12/29 04:07:31;;;;;;;17.20;12.40;;;;;;;2.28;100.00;99746.28;6216718;23;20087;-84
2021/12/29 04:09:57;;;;;;;23.73;13.30;;;;;;;2.30;100.00;99746.16;6216373;23;20482;-83
2021/12/29 04:12:23;;;;;;;18.45;12.55;;;;;;;2.26;100.00;99742.97;6216641;23;20059;-83
2021/12/29 04:14:48;;;;;;;18.58;12.88;;;;;;;2.48;100.00;99727.16;6216700;23;20336;-86
2021/12/29 04:17:18;;;;;;;17.30;12.60;;;;;;;2.52;100.00;99735.53;6189454;23;20065;-84
2021/12/29 04:22:29;;;;;;;18.67;12.13;;;;;;;2.54;100.00;99751.94;6216697;23;20028;-86
2021/12/29 04:24:55;;;;;;;18.55;12.40;;;;;;;2.35;100.00;99736.97;6190340;23;20019;-84
2021/12/29 04:27:25;;;;;;;17.77;12.13;;;;;;;2.36;100.00;99732.56;6216913;23;20040;-83
2021/12/29 04:29:51;;;;;;;16.85;11.35;;;;;;;2.38;100.00;99722.81;6217136;23;20463;-85
2021/12/29 04:32:18;;;;;;;15.60;10.73;;;;;;;2.14;100.00;99728.31;6216396;23;20047;-86
2021/12/29 04:34:44;;;;;;;15.95;10.98;;;;;;;2.33;100.00;99746.72;6216590;23;20001;-84
2021/12/29 04:37:10;;;;;;;16.90;11.57;;;;;;;2.24;100.00;99750.13;6216587;23;20012;-85
2021/12/29 04:39:36;;;;;;;14.18;10.05;;;;;;;2.26;100.00;99761.25;6219989;23;20009;-82
2021/12/29 04:42:02;;;;;;;13.15;9.40;;;;;;;2.30;100.00;99762.66;6219760;23;20000;-85
2021/12/29 04:44:27;;;;;;;13.38;9.27;;;;;;;2.66;100.00;99760.50;6216169;23;20016;-86
2021/12/29 04:46:55;;;;;;;12.45;9.25;;;;;;;2.84;100.00;99769.44;6217458;23;20108;-84
2021/12/29 04:49:27;;;;;;;15.35;10.68;;;;;;;3.06;100.00;99764.00;6218396;23;20009;-85
2021/12/29 04:52:02;;;;;;;;;;;;;;;2.98;100.00;99763.84;6217826;23;20333;-83
2021/12/29 04:54:29;;;;;;;18.92;11.50;;;;;;;2.94;100.00;99773.75;6217798;23;19919;-85
2021/12/29 04:56:55;;;;;;;16.65;11.10;;;;;;;2.71;100.00;99772.28;6217790;23;20016;-84
2021/12/29 04:59:25;;;;;;;17.88;11.27;;;;;;;2.88;100.00;99766.44;6218515;23;20440;-85
2021/12/29 05:01:51;;;;;;;16.27;11.05;;;;;;;2.71;100.00;99769.66;6166110;23;20318;-82
2021/12/29 05:04:22;;;;;;;16.27;11.02;;;;;;;3.01;100.00;99772.25;6166002;23;20040;-83
2021/12/29 05:09:34;;;;;;;17.35;11.63;;;;;;;2.90;100.00;99772.34;6217233;23;20012;-83
2021/12/29 05:12:01;;;;;;;17.75;11.93;;;;;;;2.69;100.00;99791.66;6216572;23;20005;-83
2021/12/29 05:14:28;;;;;;;17.05;11.57;;;;;;;2.60;100.00;99796.72;6216219;23;20083;-84
2021/12/29 05:16:54;;;;;;;18.73;12.10;;;;;;;2.50;100.00;99795.00;6216525;23;20055;-86
2021/12/29 05:19:20;;;;;;;16.92;11.65;;;;;;;2.41;100.00;99793.16;6216372;23;20013;-84
2021/12/29 05:21:45;;;;;;;22.05;12.80;;;;;;;2.70;100.00;99790.69;6216408;23;20009;-83
2021/12/29 05:24:11;;;;;;;95.88;12.77;;;;;;;2.66;100.00;99792.75;6216753;23;20012;-83
2021/12/29 05:26:37;;;;;;;78.40;12.00;;;;;;;2.47;100.00;99790.84;6218021;23;20021;-85
2021/12/29 05:29:02;;;;;;;91.15;12.25;;;;;;;2.59;100.00;99784.59;6191326;23;20047;-85
2021/12/29 05:31:28;;;;;;;139.85;13.02;;;;;;;2.42;100.00;99779.13;6217807;23;20013;-86
2021/12/29 05:33:55;;;;;;;109.82;12.30;;;;;;;2.27;100.00;99762.09;6192269;23;20015;-84
2021/12/29 05:36:21;;;;;;;144.85;14.02;;;;;;;2.01;100.00;99777.31;6217061;23;20000;-85
2021/12/29 05:38:46;;;;;;;99.07;14.38;;;;;;;2.03;100.00;99778.03;6221880;23;20016;-84
2021/12/29 05:41:12;;;;;;;70.18;15.18;;;;;;;2.18;100.00;99766.31;6217219;23;20005;-84
2021/12/29 05:43:37;;;;;;;58.88;14.55;;;;;;;2.33;100.00;99756.34;6215969;23;20004;-84
2021/12/29 05:46:03;;;;;;;110.45;14.40;;;;;;;2.21;100.00;99758.22;6216845;23;20379;-85
2021/12/29 05:48:29;;;;;;;66.35;15.23;;;;;;;2.15;100.00;99770.97;6216293;23;20012;-84
2021/12/29 05:50:55;;;;;;;24.17;14.63;;;;;;;2.31;100.00;99764.34;6216118;23;20454;-84
2021/12/29 05:53:21;;;;;;;106.35;15.27;;;;;;;2.38;100.00;99757.63;6189456;23;20052;-85
2021/12/29 05:55:46;;;;;;;149.32;17.13;;;;;;;2.06;100.00;99751.63;6216343;23;20012;-86
2021/12/29 05:58:12;;;;;;;143.65;16.52;;;;;;;1.85;100.00;99746.41;6215877;23;20032;-86
2021/12/29 06:00:43;;;;;;;117.30;16.92;;;;;;;1.65;100.00;99755.03;6189367;23;20024;-86
2021/12/29 06:03:09;;;;;;;127.35;17.35;;;;;;;1.51;100.00;99761.38;6189566;23;20087;-85
2021/12/29 06:05:35;;;;;;;58.83;16.80;;;;;;;1.63;100.00;99775.22;6216086;23;20452;-84
2021/12/29 06:08:01;;;;;;;64.20;14.88;;;;;;;1.72;100.00;99774.50;6216763;23;20015;-87
2021/12/29 06:10:27;;;;;;;43.05;15.13;;;;;;;1.71;100.00;99777.22;6215533;23;20393;-86
2021/12/29 06:12:52;;;;;;;36.20;14.77;;;;;;;1.76;100.00;99775.03;6189270;23;20067;-83
2021/12/29 06:15:18;;;;;;;43.47;13.93;;;;;;;1.84;100.00;99780.47;6215931;23;20028;-86
2021/12/29 06:17:44;;;;;;;36.33;13.95;;;;;;;1.92;100.00;99788.53;6215664;23;20083;-86
2021/12/29 06:20:11;;;;;;;23.98;12.90;;;;;;;2.02;100.00;99792.06;6216587;23;20071;-84
2021/12/29 06:22:37;;;;;;;26.38;12.80;;;;;;;1.90;100.00;99785.22;6186178;23;20017;-86
2021/12/29 06:25:08;;;;;;;24.92;12.40;;;;;;;1.85;100.00;99782.16;6185833;23;20009;-84
2021/12/29 06:27:33;;;;;;;29.25;12.18;;;;;;;1.70;100.00;99776.38;6159863;23;20067;-86
2021/12/29 06:29:59;;;;;;;21.67;12.60;;;;;;;1.89;100.00;99780.97;6160153;23;20428;-85
2021/12/29 06:32:26;;;;;;;31.08;12.80;;;;;;;1.80;100.00;99776.47;6186626;23;20040;-85
2021/12/29 06:34:51;;;;;;;30.95;14.20;;;;;;;1.82;100.00;99779.78;6187112;23;20009;-83
2021/12/29 06:37:17;;;;;;;26.10;12.98;;;;;;;1.67;100.00;99796.69;6186195;23;20019;-83
2021/12/29 06:39:45;;;;;;;21.65;13.18;;;;;;;1.74;100.00;99792.63;6187157;23;20032;-85
2021/12/29 06:42:12;;;;;;;27.80;13.32;;;;;;;1.73;100.00;99806.63;6188322;23;20013;-88
2021/12/29 06:44:38;;;;;;;19.30;12.57;;;;;;;1.70;100.00;99797.28;6188322;23;20036;-85
2021/12/29 06:47:05;;;;;;;15.25;11.18;;;;;;;1.67;100.00;99796.69;6189110;23;20004;-83
2021/12/29 06:49:31;;;;;;;18.83;11.80;;;;;;;1.92;100.00;99791.16;6187843;23;20048;-84
2021/12/29 06:51:57;;;;;;;17.75;11.80;;;;;;;1.92;100.00;99797.19;6190421;23;20017;-84
2021/12/29 06:54:23;;;;;;;16.73;11.15;;;;;;;1.78;100.00;99805.34;6162493;23;20448;-85
2021/12/29 06:56:48;;;;;;;21.10;12.80;;;;;;;1.89;100.00;99804.47;6161756;23;20039;-84
2021/12/29 06:59:14;;;;;;;29.40;13.07;;;;;;;1.85;100.00;99811.72;6187924;23;20009;-84
2021/12/29 07:01:39;;;;;;;49.20;13.65;;;;;;;1.91;100.00;99815.63;6161211;23;20020;-83
2021/12/29 07:04:05;;;;;;;46.40;14.48;;;;;;;1.84;100.00;99819.66;6187802;23;20005;-83
2021/12/29 07:06:30;;;;;;;21.75;13.65;;;;;;;1.80;100.00;99828.69;6188144;23;20005;-83
2021/12/29 07:08:56;;;;;;;23.52;13.60;;;;;;;1.72;100.00;99823.28;6161234;23;20017;-84
2021/12/29 07:11:24;;;;;;;69.70;15.43;;;;;;;1.61;100.00;99823.31;6187746;23;20401;-85
2021/12/29 07:13:51;;;;;;;43.47;15.13;;;;;;;1.60;100.00;99827.69;6187402;23;20009;-84
2021/12/29 07:16:16;;;;;;;28.10;14.52;;;;;;;1.52;100.00;99830.09;6187774;23;20009;-85
2021/12/29 07:18:43;;;;;;;22.88;13.35;;;;;;;1.71;100.00;99840.72;6190294;23;20464;-83
2021/12/29 07:21:08;;;;;;;31.65;13.05;;;;;;;1.54;100.00;99855.13;6199075;23;20016;-81
2021/12/29 07:23:34;;;;;;;43.65;13.52;;;;;;;1.51;100.00;99865.81;6217930;23;20016;-84
2021/12/29 07:26:00;;;;;;;69.38;15.32;;;;;;;1.44;100.00;99867.25;6217216;23;20080;-82
2021/12/29 07:28:25;;;;;;;78.70;14.10;;;;;;;1.49;100.00;99870.31;6222066;23;20396;-83
2021/12/29 07:30:51;;;;;;;52.20;15.00;;;;;;;1.37;100.00;99873.06;6218258;23;20009;-84
2021/12/29 07:33:16;;;;;;;126.65;14.70;;;;;;;1.34;100.00;99870.69;6218287;23;20452;-84
2021/12/29 07:35:42;;;;;;;78.75;15.00;;;;;;;1.30;100.00;99871.88;6217801;23;20005;-82
2021/12/29 07:38:07;;;;;;;39.90;14.98;;;;;;;1.47;100.00;99879.22;6217957;23;20016;-83
2021/12/29 07:40:34;;;;;;;33.10;12.98;;;;;;;1.69;100.00;99883.59;6218453;23;20001;-84
2021/12/29 07:43:01;;;;;;;32.65;13.07;;;;;;;1.67;100.00;99882.88;6218390;23;20013;-88
2021/12/29 07:45:31;;;;;;;49.50;14.07;;;;;;;1.78;100.00;99882.88;6193739;23;20009;-85
2021/12/29 07:48:02;;;;;;;30.33;13.00;;;;;;;1.86;100.00;99890.91;6194728;23;20356;-89
2021/12/29 07:50:27;;;;;;;28.05;13.35;;;;;;;1.90;100.00;99884.50;6220715;23;20071;-88
2021/12/29 07:52:53;;;;;;;24.33;12.80;;;;;;;2.00;100.00;99872.34;6219070;23;20009;-86
2021/12/29 07:55:19;;;;;;;23.23;13.10;;;;;;;2.35;100.00;99872.94;6218668;23;20015;-86
2021/12/29 07:57:46;;;;;;;26.98;12.73;;;;;;;2.15;100.00;99875.50;6193801;23;20019;-89
2021/12/29 08:00:12;;;;;;;28.27;13.40;;;;;;;2.16;100.00;99887.63;6218454;23;20035;-85
2021/12/29 08:02:39;;;;;;;23.00;12.45;;;;;;;2.18;100.00;99883.94;6220285;23;20085;-85
2021/12/29 08:05:08;;;;;;;56.83;14.13;;;;;;;2.26;100.00;99884.13;6221043;23;20008;-87
2021/12/29 08:07:35;;;;;;;62.13;14.52;;;;;;;2.21;100.00;99891.53;6218386;23;20028;-85
2021/12/29 08:10:02;;;;;;;310.42;19.25;;;;;;;2.13;100.00;99893.94;6218706;23;20011;-86
2021/12/29 08:12:31;;;;;;;200.02;17.58;;;;;;;2.14;100.00;99900.00;6220202;23;20013;-87
2021/12/29 08:14:57;;;;;;;86.30;16.45;;;;;;;2.32;100.00;99899.31;6192861;23;20482;-86
2021/12/29 08:17:25;;;;;;;98.65;17.02;;;;;;;2.44;100.00;99903.56;6227884;23;20016;-84
2021/12/29 08:19:51;;;;;;;73.95;16.63;;;;;;;2.51;100.00;99904.72;6198236;23;20039;-84
2021/12/29 08:22:18;;;;;;;82.10;15.63;;;;;;;2.56;100.00;99907.78;6228840;23;20103;-88
2021/12/29 08:24:44;;;;;;;133.82;20.08;;;;;;;2.59;100.00;99910.13;6193337;23;20032;-85
2021/12/29 08:27:10;;;;;;;155.90;20.67;;;;;;;2.68;100.00;99918.19;6218324;23;20090;-85
2021/12/29 08:29:36;;;;;;;202.13;23.70;;;;;;;2.63;100.00;99928.19;6217981;23;20015;-84
2021/12/29 08:32:03;;;;;;;427.85;31.98;;;;;;;2.68;100.00;99934.72;6217505;23;20066;-87
2021/12/29 08:34:29;;;;;;;491.20;34.47;;;;;;;2.55;100.00;99953.19;6213040;23;20008;-85
2021/12/29 08:36:54;;;;;;;437.60;33.60;;;;;;;2.59;100.00;99954.59;6189546;23;20068;-87
2021/12/29 08:39:20;;;;;;;610.78;37.83;;;;;;;2.49;100.00;99953.69;6216848;23;20036;-85
2021/12/29 08:41:48;;;;;;;266.67;36.38;;;;;;;2.67;100.00;99945.31;6219738;23;20013;-83
2021/12/29 08:44:14;;;;;;;118.88;39.33;;;;;;;2.75;100.00;99948.94;6216062;23;20017;-85
2021/12/29 08:46:39;;;;;;;135.75;37.15;;;;;;;3.00;100.00;99953.81;6217534;23;20009;-86
2021/12/29 08:49:05;;;;;;;599.83;44.25;;;;;;;2.80;100.00;99957.25;6216285;23;20336;-83
2021/12/29 08:51:31;;;;;;;103.53;38.45;;;;;;;2.99;100.00;99946.06;6217051;23;20031;-84
2021/12/29 08:53:57;;;;;;;126.45;40.55;;;;;;;3.16;100.00;99958.59;6221140;23;20012;-83
2021/12/29 08:56:24;;;;;;;181.77;41.75;;;;;;;3.19;100.00;99950.47;6235072;23;20307;-86
2021/12/29 08:58:52;;;;;;;236.10;41.13;;;;;;;3.35;100.00;99942.97;6238960;23;20005;-85
2021/12/29 09:01:20;;;;;;;222.43;40.47;;;;;;;3.37;100.00;99951.56;6238939;23;20020;-83
2021/12/29 09:03:47;;;;;;;108.60;39.50;;;;;;;3.47;100.00;99962.06;6197516;23;20112;-84
2021/12/29 09:06:13;;;;;;;297.35;39.00;;;;;;;3.39;100.00;99969.75;6218464;23;20103;-85
2021/12/29 09:08:39;;;;;;;217.25;39.47;;;;;;;3.34;100.00;99951.81;6217552;23;20039;-83
2021/12/29 09:11:05;;;;;;;261.02;39.85;;;;;;;3.31;100.00;99941.59;6215908;23;20019;-85
2021/12/29 09:13:31;;;;;;;297.65;40.70;;;;;;;3.29;100.00;99963.63;6215957;23;20009;-85
2021/12/29 09:15:57;;;;;;;70.50;38.50;;;;;;;3.58;100.00;99981.13;6215615;23;20025;-83
2021/12/29 09:18:24;;;;;;;97.82;37.95;;;;;;;3.48;100.00;99987.31;6215323;23;20016;-84
2021/12/29 09:20:51;;;;;;;154.45;38.38;;;;;;;3.43;100.00;99968.53;6215422;23;20012;-84
2021/12/29 09:23:17;;;;;;;191.38;37.20;;;;;;;3.44;100.00;99988.53;6215837;23;20096;-83
2021/12/29 09:25:45;;;;;;;148.52;36.63;;;;;;;3.54;100.00;100002.50;6215866;23;20400;-88
2021/12/29 09:28:14;;;;;;;148.60;37.30;;;;;;;3.53;100.00;99988.56;6189561;23;20074;-87
2021/12/29 09:30:42;;;;;;;93.95;37.38;;;;;;;3.57;100.00;100003.09;6190545;23;20012;-87
2021/12/29 09:33:08;;;;;;;130.77;39.60;;;;;;;3.59;100.00;99998.53;6191336;23;20016;-86
2021/12/29 09:35:35;;;;;;;124.93;39.22;;;;;;;3.56;100.00;99998.78;6194924;23;20088;-85
2021/12/29 09:38:00;;;;;;;211.27;42.92;;;;;;;3.55;100.00;99991.06;6216816;23;20020;-84
2021/12/29 09:40:26;;;;;;;90.38;43.70;;;;;;;3.69;100.00;99989.88;6215197;23;20012;-87
2021/12/29 09:42:54;;;;;;;193.20;47.53;;;;;;;3.50;100.00;99994.06;6216160;23;20014;-89
2021/12/29 09:45:20;;;;;;;123.50;50.50;;;;;;;3.48;100.00;99988.13;6216774;23;20455;-87
2021/12/29 09:47:46;;;;;;;122.60;53.15;;;;;;;3.62;100.00;99989.56;6209561;23;20083;-84
2021/12/29 09:50:18;;;;;;;133.55;52.38;;;;;;;3.71;100.00;99980.13;6215395;23;20055;-85
2021/12/29 09:52:44;;;;;;;128.68;53.95;;;;;;;3.68;100.00;99983.00;6189047;23;20326;-86
2021/12/29 09:55:14;;;;;;;113.32;54.30;;;;;;;3.86;100.00;99982.22;6215833;23;20065;-86
2021/12/29 09:57:46;;;;;;;107.05;53.70;;;;;;;3.95;100.00;99977.97;6213687;23;20348;-84
2021/12/29 10:00:21;;;;;;;100.13;54.30;;;;;;;3.94;100.00;99966.69;6216404;23;20032;-87
2021/12/29 10:02:47;;;;;;;113.32;53.63;;;;;;;4.02;100.00;99984.34;6189787;23;20013;-86
2021/12/29 10:05:13;;;;;;;104.05;52.08;;;;;;;4.19;100.00;99967.97;6188910;23;20063;-87
2021/12/29 10:07:40;;;;;;;97.72;51.63;;;;;;;4.25;100.00;99971.84;6213739;23;20082;-85
2021/12/29 10:10:17;;;;;;;91.95;51.05;;;;;;;4.28;100.00;99966.31;6215503;23;20012;-84
2021/12/29 10:12:44;;;;;;;107.75;52.60;;;;;;;4.23;100.00;99960.66;6215205;23;20028;-86
2021/12/29 10:15:10;;;;;;;105.80;52.83;;;;;;;4.35;100.00;99964.81;6190595;23;20019;-86
2021/12/29 10:17:36;;;;;;;106.82;51.03;;;;;;;4.22;100.00;99962.44;6216368;23;20012;-84
2021/12/29 10:20:17;;;;;;;99.13;52.15;;;;;;;4.30;100.00;99973.13;6215461;23;20013;-83
2021/12/29 10:22:53;;;;;;;97.82;52.67;;;;;;;4.40;100.00;99963.47;6214899;23;20012;-85
2021/12/29 10:25:24;;;;;;;95.47;51.88;;;;;;;4.43;100.00;99971.06;6215256;23;20011;-83
2021/12/29 10:27:52;;;;;;;96.63;51.47;;;;;;;4.45;100.00;99963.03;6187700;23;20443;-82
2021/12/29 10:30:33;;;;;;;87.32;49.45;;;;;;;4.79;100.00;99958.22;6215892;23;20040;-85
2021/12/29 10:33:11;;;;;;;83.43;44.85;;;;;;;4.99;100.00;99958.06;6216587;23;20009;-86
2021/12/29 10:35:37;;;;;;;68.28;40.85;;;;;;;4.82;100.00;99960.56;6189190;23;20063;-84
2021/12/29 10:38:28;;;;;;;73.30;40.88;;;;;;;4.67;100.00;99950.47;6218925;23;20032;-89
2021/12/29 10:41:03;;;;;;;73.88;39.55;;;;;;;4.77;100.00;99944.41;6210474;23;20748;-88
2021/12/29 10:43:29;;;;;;;77.95;41.22;;;;;;;4.68;100.00;99949.50;6213626;23;20490;-84
2021/12/29 10:45:55;;;;;;;70.28;41.03;;;;;;;4.74;100.00;99961.25;6213220;23;20040;-80
2021/12/29 10:48:26;;;;;;;73.32;42.75;;;;;;;4.86;100.00;99954.06;6213082;23;20013;-85
2021/12/29 10:51:05;;;;;;;79.60;42.53;;;;;;;4.97;100.00;99951.31;6214859;23;20017;-86
2021/12/29 10:53:37;;;;;;;68.15;40.60;;;;;;;4.96;100.00;99954.88;6215683;23;20091;-88
2021/12/29 10:56:04;;;;;;;71.43;43.00;;;;;;;5.09;100.00;99955.41;6216847;23;20009;-90
2021/12/29 10:58:33;;;;;;;70.65;40.05;;;;;;;5.10;100.00;99957.09;6220533;23;20009;-83
2021/12/29 11:01:05;;;;;;;70.90;40.08;;;;;;;5.35;100.00;99953.84;6167889;23;20112;-88
2021/12/29 11:03:32;;;;;;;70.03;39.85;;;;;;;5.41;100.00;99945.38;6164682;23;20035;-85
2021/12/29 11:06:03;;;;;;;65.40;39.92;;;;;;;5.46;100.00;99948.41;6203060;23;20066;-93
2021/12/29 11:08:33;;;;;;;64.78;37.53;;;;;;;5.50;100.00;99943.72;6199589;23;20017;-90
2021/12/29 11:11:06;;;;;;;65.80;38.30;;;;;;;5.35;100.00;99945.97;6224610;23;20007;-87
2021/12/29 11:13:38;;;;;;;72.88;39.38;;;;;;;5.32;100.00;99941.00;6198567;23;20463;-85
2021/12/29 11:16:05;;;;;;;69.15;41.90;;;;;;;5.38;100.00;99950.09;6182772;23;20013;-88
2021/12/29 11:18:43;;;;;;;70.13;41.17;;;;;;;5.52;100.00;99949.63;6217304;23;20423;-87
2021/12/29 11:21:10;;;;;;;72.53;42.65;;;;;;;5.47;100.00;99938.75;6216588;23;20031;-86
2021/12/29 11:23:41;;;;;;;74.45;43.65;;;;;;;5.51;100.00;99946.19;6188576;23;20009;-90
2021/12/29 11:26:11;;;;;;;71.05;43.33;;;;;;;5.67;100.00;99948.19;6216158;23;20436;-84
2021/12/29 11:28:38;;;;;;;79.75;44.40;;;;;;;5.60;100.00;99944.50;6218497;23;20487;-83
2021/12/29 11:31:08;;;;;;;77.47;44.72;;;;;;;5.91;100.00;99937.16;6216497;23;20016;-84